Time;durP1;ratioP1;P1;durP2;ratioP2;P2;SDS_P1;SDS_P2;PMS_P1;PMS_P2;Temp;Humidity;BMP_temperature;BMP_pressure;BME280_temperature;BME280_humidity;BME280_pressure;Samples;Min_cycle;Max_cycle;Signal;HPM_P1;HPM_P2
2022/11/13 00:00:00;;;;;;;;;;;;;;;3.42;100.00;102086.89;1464247;88;20276;-83
2022/11/13 00:02:26;;;;;;;;;;;;;;;3.43;100.00;102091.69;1469694;88;21630;-83
2022/11/13 00:04:51;;;;;;;;;;;;;;;3.40;99.79;102084.81;1468730;88;20775;-83
2022/11/13 00:07:17;;;;;;;;;;;;;;;3.36;99.56;102076.67;1475078;88;20291;-82
2022/11/13 00:09:43;;;;;;;;;;;;;;;3.31;100.00;102078.17;1465499;88;21076;-82
2022/11/13 00:12:09;;;;;;;;;;;;;;;3.28;100.00;102081.34;1467819;88;20349;-83
2022/11/13 00:14:35;;;;;;;;;;;;;;;3.23;100.00;102085.93;1450566;90;20382;-83
2022/11/13 00:17:01;;;;;;;;;;;;;;;3.16;100.00;102077.02;1455338;88;20409;-83
2022/11/13 00:19:26;;;;;;;;;;;;;;;3.12;100.00;102076.72;1465057;88;20240;-83
2022/11/13 00:21:53;;;;;;;;;;;;;;;3.07;100.00;102075.19;1455028;89;20740;-83
2022/11/13 00:24:19;;;;;;;;;;;;;;;3.02;100.00;102081.92;1439352;90;20279;-83
2022/11/13 00:26:45;;;;;;;;;;;;;;;2.98;100.00;102078.17;1427574;91;20303;-82
2022/11/13 00:29:11;;;;;;;;;;;;;;;2.94;100.00;102081.36;1424645;92;20258;-81
2022/11/13 00:31:37;;;;;;;;;;;;;;;2.90;100.00;102084.52;1431427;91;20279;-82
2022/11/13 00:34:02;;;;;;;;;;;;;;;2.89;100.00;102084.59;1446749;89;20307;-82
2022/11/13 00:36:28;;;;;;;;;;;;;;;2.87;100.00;102078.56;1452494;89;20292;-82
2022/11/13 00:38:54;;;;;;;;;;;;;;;2.85;100.00;102085.61;1436971;89;20306;-83
2022/11/13 00:41:21;;;;;;;;;;;;;;;2.84;100.00;102084.76;1451282;89;20328;-82
2022/11/13 00:43:47;;;;;;;;;;;;;;;2.85;100.00;102082.98;1448777;88;20313;-82
2022/11/13 00:46:13;;;;;;;;;;;;;;;2.82;100.00;102081.37;1441885;89;20857;-82
2022/11/13 00:48:39;;;;;;;;;;;;;;;2.81;99.82;102076.18;1442912;89;20350;-82
2022/11/13 00:51:05;;;;;;;;;;;;;;;2.83;99.94;102072.60;1439720;89;20932;-83
2022/11/13 00:53:31;;;;;;;;;;;;;;;2.83;99.94;102066.06;1445128;89;20352;-83
2022/11/13 00:55:56;;;;;;;;;;;;;;;2.81;100.00;102059.19;1440616;89;20301;-83
2022/11/13 00:58:22;;;;;;;;;;;;;;;2.78;100.00;102061.45;1439415;90;20235;-82
2022/11/13 01:00:48;;;;;;;;;;;;;;;2.77;100.00;102065.45;1443223;90;20292;-82
2022/11/13 01:03:15;;;;;;;;;;;;;;;2.73;100.00;102066.46;1438134;90;20321;-82
2022/11/13 01:05:43;;;;;;;;;;;;;;;2.69;100.00;102062.66;1473031;88;20364;-82
2022/11/13 01:08:10;;;;;;;;;;;;;;;2.68;100.00;102063.58;1480161;88;20915;-83
2022/11/13 01:10:43;;;;;;;;;;;;;;;2.67;100.00;102054.47;1467687;88;20471;-82
2022/11/13 01:13:09;;;;;;;;;;;;;;;2.64;100.00;102051.97;1454291;90;20300;-82
2022/11/13 01:15:43;;;;;;;;;;;;;;;2.63;100.00;102051.13;1452412;90;20408;-81
2022/11/13 01:18:11;;;;;;;;;;;;;;;2.62;100.00;102057.27;1457626;90;20874;-81
2022/11/13 01:20:37;;;;;;;;;;;;;;;2.64;99.89;102058.05;1452428;90;21099;-80
2022/11/13 01:23:03;;;;;;;;;;;;;;;2.65;99.93;102055.84;1452639;90;20487;-81
2022/11/13 01:25:30;;;;;;;;;;;;;;;2.66;99.96;102048.39;1461274;88;20657;-80
2022/11/13 01:27:56;;;;;;;;;;;;;;;2.70;99.98;102046.08;1460887;88;20328;-81
2022/11/13 01:30:22;;;;;;;;;;;;;;;2.73;100.00;102042.92;1449091;90;20527;-81
2022/11/13 01:32:48;;;;;;;;;;;;;;;2.74;99.42;102048.58;1453908;90;20339;-81
2022/11/13 01:35:14;;;;;;;;;;;;;;;2.76;99.50;102046.27;1448023;90;20286;-81
2022/11/13 01:37:40;;;;;;;;;;;;;;;2.78;99.52;102042.31;1449032;90;20234;-82
2022/11/13 01:40:08;;;;;;;;;;;;;;;2.76;99.43;102048.04;1448364;90;20383;-81
2022/11/13 01:42:34;;;;;;;;;;;;;;;2.71;99.57;102039.92;1451589;90;20271;-80
2022/11/13 01:45:03;;;;;;;;;;;;;;;2.65;100.00;102044.08;1451981;90;20394;-79
2022/11/13 01:47:30;;;;;;;;;;;;;;;2.56;99.75;102040.51;1456451;90;20392;-81
2022/11/13 01:49:59;;;;;;;;;;;;;;;2.49;99.27;102035.09;1450494;90;20393;-81
2022/11/13 01:52:30;;;;;;;;;;;;;;;2.43;99.75;102041.86;1455989;90;20237;-81
2022/11/13 01:55:05;;;;;;;;;;;;;;;2.36;99.61;102043.84;1475683;88;20261;-80
2022/11/13 01:57:31;;;;;;;;;;;;;;;2.30;99.70;102044.04;1458353;88;20341;-80
2022/11/13 02:00:00;;;;;;;;;;;;;;;2.25;99.91;102048.14;1465768;88;20432;-81
2022/11/13 02:02:26;;;;;;;;;;;;;;;2.21;100.00;102045.22;1460441;88;20254;-80
2022/11/13 02:04:52;;;;;;;;;;;;;;;2.21;100.00;102050.45;1459905;88;20298;-81
2022/11/13 02:07:20;;;;;;;;;;;;;;;2.21;99.76;102042.61;1457733;88;20252;-81
2022/11/13 02:09:49;;;;;;;;;;;;;;;2.21;99.59;102045.22;1455193;90;20446;-82
2022/11/13 02:12:18;;;;;;;;;;;;;;;2.20;100.00;102048.75;1455580;88;20380;-82
2022/11/13 02:14:50;;;;;;;;;;;;;;;2.20;100.00;102047.91;1455990;89;20345;-81
2022/11/13 02:17:23;;;;;;;;;;;;;;;2.21;100.00;102040.00;1460712;88;20419;-81
2022/11/13 02:19:51;;;;;;;;;;;;;;;2.22;99.84;102043.03;1439685;89;20309;-83
2022/11/13 02:22:44;;;;;;;;;;;;;;;2.24;100.00;102038.61;1456970;88;20297;-82
2022/11/13 02:25:11;;;;;;;;;;;;;;;2.28;100.00;102039.80;1455496;90;20306;-82
2022/11/13 02:27:48;;;;;;;;;;;;;;;2.27;100.00;102033.70;1453409;88;20749;-82
2022/11/13 02:30:21;;;;;;;;;;;;;;;2.26;100.00;102030.24;1469781;88;20390;-83
2022/11/13 02:32:49;;;;;;;;;;;;;;;2.23;100.00;102036.88;1459634;88;20968;-82
2022/11/13 02:35:20;;;;;;;;;;;;;;;2.19;100.00;102030.53;1450781;90;20585;-83
2022/11/13 02:37:46;;;;;;;;;;;;;;;2.15;100.00;102038.91;1461625;90;20235;-83
2022/11/13 02:40:13;;;;;;;;;;;;;;;2.14;100.00;102038.52;1445803;90;20426;-83
2022/11/13 02:42:39;;;;;;;;;;;;;;;2.13;100.00;102033.34;1445380;90;20850;-83
2022/11/13 02:45:06;;;;;;;;;;;;;;;2.13;100.00;102038.13;1450986;90;20338;-82
2022/11/13 02:47:33;;;;;;;;;;;;;;;2.14;100.00;102036.37;1447761;90;20853;-83
2022/11/13 02:49:58;;;;;;;;;;;;;;;2.13;100.00;102039.44;1447285;90;20293;-83
2022/11/13 02:52:24;;;;;;;;;;;;;;;2.15;100.00;102037.60;1456835;90;20293;-82
2022/11/13 02:54:50;;;;;;;;;;;;;;;2.18;100.00;102033.58;1449028;90;20228;-83
2022/11/13 02:57:16;;;;;;;;;;;;;;;2.19;99.42;102030.08;1455462;90;20834;-82
2022/11/13 02:59:43;;;;;;;;;;;;;;;2.20;99.58;102027.85;1452037;88;20380;-83
2022/11/13 03:02:08;;;;;;;;;;;;;;;2.19;100.00;102031.84;1476773;88;20314;-81
2022/11/13 03:04:34;;;;;;;;;;;;;;;2.18;100.00;102028.81;1469485;88;20759;-82
2022/11/13 03:07:00;;;;;;;;;;;;;;;2.15;100.00;102021.94;1467097;88;20247;-82
2022/11/13 03:09:26;;;;;;;;;;;;;;;2.13;100.00;102028.99;1453780;88;20286;-81
2022/11/13 03:11:52;;;;;;;;;;;;;;;2.10;100.00;102026.49;1470093;88;20261;-82
2022/11/13 03:14:18;;;;;;;;;;;;;;;2.07;100.00;102025.27;1467937;88;20305;-81
2022/11/13 03:16:44;;;;;;;;;;;;;;;2.05;100.00;102027.09;1458522;88;20390;-82
2022/11/13 03:19:10;;;;;;;;;;;;;;;2.02;100.00;102028.05;1467467;88;20298;-81
2022/11/13 03:21:35;;;;;;;;;;;;;;;2.00;100.00;102029.86;1465781;88;20305;-82
2022/11/13 03:24:01;;;;;;;;;;;;;;;2.00;100.00;102025.09;1434200;90;20317;-82
2022/11/13 03:26:28;;;;;;;;;;;;;;;2.01;100.00;102026.78;1465785;88;20290;-83
2022/11/13 03:28:54;;;;;;;;;;;;;;;2.01;100.00;102029.40;1476611;88;20306;-82
2022/11/13 03:31:22;;;;;;;;;;;;;;;2.03;100.00;102036.28;1471500;88;20314;-83
2022/11/13 03:33:53;;;;;;;;;;;;;;;2.06;100.00;102040.55;1474398;88;20350;-82
2022/11/13 03:36:19;;;;;;;;;;;;;;;2.03;100.00;102031.05;1455663;88;20320;-83
2022/11/13 03:38:45;;;;;;;;;;;;;;;2.07;100.00;102030.95;1456233;88;20811;-81
2022/11/13 03:41:13;;;;;;;;;;;;;;;2.08;100.00;102028.75;1460100;88;20275;-81
2022/11/13 03:43:38;;;;;;;;;;;;;;;2.06;100.00;102024.88;1462449;88;20256;-80
2022/11/13 03:46:04;;;;;;;;;;;;;;;2.05;100.00;102022.34;1474945;88;20318;-81
2022/11/13 03:48:30;;;;;;;;;;;;;;;2.03;100.00;102024.98;1428912;90;20305;-84
2022/11/13 03:50:56;;;;;;;;;;;;;;;1.98;100.00;102024.28;1465237;88;20298;-82
2022/11/13 03:53:22;;;;;;;;;;;;;;;1.95;100.00;102023.09;1476465;88;20290;-83
2022/11/13 03:55:48;;;;;;;;;;;;;;;1.90;100.00;102023.27;1471573;88;20753;-81
2022/11/13 03:58:14;;;;;;;;;;;;;;;1.86;100.00;102018.19;1457097;88;20455;-81
2022/11/13 04:00:41;;;;;;;;;;;;;;;1.83;100.00;102018.30;1464792;88;20716;-81
2022/11/13 04:03:07;;;;;;;;;;;;;;;1.81;100.00;102018.33;1460888;88;20282;-81
2022/11/13 04:05:33;;;;;;;;;;;;;;;1.80;100.00;102017.48;1458892;90;20298;-81
2022/11/13 04:07:59;;;;;;;;;;;;;;;1.84;100.00;102022.14;1462445;88;20283;-81
2022/11/13 04:10:25;;;;;;;;;;;;;;;1.87;100.00;102018.15;1469695;88;20268;-81
2022/11/13 04:12:51;;;;;;;;;;;;;;;1.91;100.00;102025.42;1463821;88;20298;-81
2022/11/13 04:15:17;;;;;;;;;;;;;;;1.92;100.00;102023.20;1440794;89;20367;-81
2022/11/13 04:17:43;;;;;;;;;;;;;;;1.90;100.00;102011.52;1438073;91;20727;-80
2022/11/13 04:20:09;;;;;;;;;;;;;;;1.87;100.00;102014.66;1444597;90;20519;-81
2022/11/13 04:22:35;;;;;;;;;;;;;;;1.82;100.00;102018.75;1445827;90;20449;-79
2022/11/13 04:25:01;;;;;;;;;;;;;;;1.78;100.00;102022.36;1443073;90;20255;-80
2022/11/13 04:27:27;;;;;;;;;;;;;;;1.73;100.00;102016.00;1453886;90;20343;-81
2022/11/13 04:29:53;;;;;;;;;;;;;;;1.68;100.00;102011.39;1456354;90;20240;-84
2022/11/13 04:32:22;;;;;;;;;;;;;;;1.65;100.00;102010.19;1447216;88;20285;-83
2022/11/13 04:34:48;;;;;;;;;;;;;;;1.64;100.00;102011.10;1470561;88;20797;-83
2022/11/13 04:37:13;;;;;;;;;;;;;;;1.63;100.00;102007.23;1456795;88;20415;-82
2022/11/13 04:39:39;;;;;;;;;;;;;;;1.62;100.00;102007.68;1446279;90;20548;-83
2022/11/13 04:44:50;;;;;;;;;;;;;;;1.63;100.00;102005.46;1454683;90;20418;-83
2022/11/13 04:47:16;;;;;;;;;;;;;;;1.65;100.00;102008.88;1451476;90;20267;-83
2022/11/13 04:49:41;;;;;;;;;;;;;;;1.65;100.00;102010.64;1458348;90;20746;-82
2022/11/13 04:52:07;;;;;;;;;;;;;;;1.63;100.00;102011.14;1458369;88;20304;-82
2022/11/13 04:54:33;;;;;;;;;;;;;;;1.58;100.00;102021.72;1459493;90;20395;-82
2022/11/13 04:56:59;;;;;;;;;;;;;;;1.52;100.00;102014.09;1458688;90;20336;-83
2022/11/13 04:59:25;;;;;;;;;;;;;;;1.46;100.00;102013.00;1456953;90;20247;-82
2022/11/13 05:01:51;;;;;;;;;;;;;;;1.42;100.00;102014.02;1433019;90;20292;-82
2022/11/13 05:04:17;;;;;;;;;;;;;;;1.35;100.00;102010.30;1450334;88;20298;-81
2022/11/13 05:06:43;;;;;;;;;;;;;;;1.32;100.00;102012.14;1465870;88;20298;-81
2022/11/13 05:09:10;;;;;;;;;;;;;;;1.24;100.00;102007.19;1447596;88;20315;-82
2022/11/13 05:11:35;;;;;;;;;;;;;;;1.17;100.00;102004.81;1462622;88;20298;-82
2022/11/13 05:14:03;;;;;;;;;;;;;;;1.09;100.00;102008.53;1470773;88;20283;-82
2022/11/13 05:16:29;;;;;;;;;;;;;;;1.03;100.00;102010.45;1469720;88;20298;-82
2022/11/13 05:18:57;;;;;;;;;;;;;;;1.00;100.00;102008.80;1466179;88;20840;-83
2022/11/13 05:21:23;;;;;;;;;;;;;;;1.01;100.00;102013.13;1466491;88;20776;-82
2022/11/13 05:23:49;;;;;;;;;;;;;;;1.05;100.00;102011.27;1459470;88;20365;-82
2022/11/13 05:26:14;;;;;;;;;;;;;;;1.09;100.00;102024.17;1466636;88;20365;-82
2022/11/13 05:28:40;;;;;;;;;;;;;;;1.08;100.00;102017.69;1456789;88;20289;-83
2022/11/13 05:31:09;;;;;;;;;;;;;;;1.07;100.00;102018.60;1456212;88;20260;-83
2022/11/13 05:33:36;;;;;;;;;;;;;;;1.03;100.00;102019.58;1457247;88;20283;-84
2022/11/13 05:36:04;;;;;;;;;;;;;;;0.97;100.00;102024.98;1448493;90;20290;-82
2022/11/13 05:38:31;;;;;;;;;;;;;;;0.91;99.85;102026.03;1475669;88;20402;-83
2022/11/13 05:41:15;;;;;;;;;;;;;;;0.86;99.79;102022.27;1475763;88;20305;-83
2022/11/13 05:43:42;;;;;;;;;;;;;;;0.86;99.86;102022.70;1470134;88;20275;-83
2022/11/13 05:46:11;;;;;;;;;;;;;;;0.88;100.00;102024.36;1461747;88;20387;-83
2022/11/13 05:48:37;;;;;;;;;;;;;;;0.90;100.00;102029.09;1450024;90;20254;-83
2022/11/13 05:51:10;;;;;;;;;;;;;;;0.94;100.00;102027.69;1465240;88;20343;-83
2022/11/13 05:53:36;;;;;;;;;;;;;;;0.95;100.00;102028.08;1453254;90;20351;-84
2022/11/13 05:56:04;;;;;;;;;;;;;;;0.99;100.00;102027.95;1463664;88;20401;-84
2022/11/13 05:58:30;;;;;;;;;;;;;;;1.03;100.00;102031.31;1455280;88;20460;-80
2022/11/13 06:01:09;;;;;;;;;;;;;;;1.04;100.00;102027.83;1452419;88;20390;-81
2022/11/13 06:03:35;;;;;;;;;;;;;;;1.05;100.00;102036.05;1455335;88;20671;-81
2022/11/13 06:06:01;;;;;;;;;;;;;;;1.05;100.00;102038.64;1470456;88;20232;-81
2022/11/13 06:08:27;;;;;;;;;;;;;;;1.00;100.00;102030.95;1443905;90;20501;-82
2022/11/13 06:10:59;;;;;;;;;;;;;;;0.94;100.00;102031.59;1430821;90;20324;-81
2022/11/13 06:13:26;;;;;;;;;;;;;;;0.92;100.00;102034.70;1467828;88;20754;-80
2022/11/13 06:15:52;;;;;;;;;;;;;;;0.87;100.00;102034.40;1473744;88;20312;-82
2022/11/13 06:18:24;;;;;;;;;;;;;;;0.83;100.00;102031.45;1465808;88;20702;-81
2022/11/13 06:20:50;;;;;;;;;;;;;;;0.83;100.00;102026.25;1477734;88;20299;-81
2022/11/13 06:23:15;;;;;;;;;;;;;;;0.85;100.00;102030.97;1459684;88;20275;-81
2022/11/13 06:25:41;;;;;;;;;;;;;;;0.95;100.00;102034.59;1444153;88;20716;-81
2022/11/13 06:28:07;;;;;;;;;;;;;;;1.06;100.00;102037.73;1475391;88;20276;-81
2022/11/13 06:30:33;;;;;;;;;;;;;;;1.18;100.00;102029.98;1459016;88;20268;-81
2022/11/13 06:32:59;;;;;;;;;;;;;;;1.26;100.00;102031.44;1451152;90;20342;-82
2022/11/13 06:35:25;;;;;;;;;;;;;;;1.39;100.00;102029.77;1453049;90;20910;-82
2022/11/13 06:37:52;;;;;;;;;;;;;;;1.48;100.00;102034.69;1454000;88;20225;-81
2022/11/13 06:40:18;;;;;;;;;;;;;;;1.53;100.00;102035.39;1453855;88;20364;-82
2022/11/13 06:42:44;;;;;;;;;;;;;;;1.55;100.00;102038.36;1450273;88;20958;-82
2022/11/13 06:45:10;;;;;;;;;;;;;;;1.54;100.00;102039.70;1448390;90;20374;-82
2022/11/13 06:47:36;;;;;;;;;;;;;;;1.47;100.00;102039.05;1464006;88;20387;-82
2022/11/13 06:50:02;;;;;;;;;;;;;;;1.44;100.00;102043.07;1462139;88;20328;-81
2022/11/13 06:52:28;;;;;;;;;;;;;;;1.50;100.00;102040.72;1473727;88;20232;-81
2022/11/13 06:54:54;;;;;;;;;;;;;;;1.57;100.00;102039.59;1471222;88;20357;-81
2022/11/13 06:57:20;;;;;;;;;;;;;;;1.60;100.00;102036.88;1460945;88;20262;-84
2022/11/13 06:59:45;;;;;;;;;;;;;;;1.69;100.00;102036.57;1452392;90;20821;-81
2022/11/13 07:02:11;;;;;;;;;;;;;;;1.82;100.00;102035.72;1451433;90;20250;-81
2022/11/13 07:04:37;;;;;;;;;;;;;;;1.99;100.00;102036.45;1446541;90;20378;-81
2022/11/13 07:07:03;;;;;;;;;;;;;;;2.10;100.00;102042.16;1445532;90;21222;-81
2022/11/13 07:09:30;;;;;;;;;;;;;;;2.19;100.00;102034.45;1449560;90;20257;-81
2022/11/13 07:11:56;;;;;;;;;;;;;;;2.32;100.00;102024.41;1441140;90;20257;-81
2022/11/13 07:14:22;;;;;;;;;;;;;;;2.43;100.00;102019.64;1456472;89;20320;-80
2022/11/13 07:16:48;;;;;;;;;;;;;;;2.56;100.00;102020.02;1439158;90;20363;-80
2022/11/13 07:19:14;;;;;;;;;;;;;;;2.69;100.00;102026.05;1452935;89;20253;-80
2022/11/13 07:21:39;;;;;;;;;;;;;;;2.82;100.00;102021.23;1464164;88;20752;-82
2022/11/13 07:24:05;;;;;;;;;;;;;;;2.94;100.00;102015.97;1454464;89;20283;-80
2022/11/13 07:26:31;;;;;;;;;;;;;;;3.01;100.00;102016.11;1466879;88;20366;-80
2022/11/13 07:28:57;;;;;;;;;;;;;;;3.07;100.00;102014.56;1458764;88;20390;-83
2022/11/13 07:31:23;;;;;;;;;;;;;;;3.15;100.00;102016.42;1470875;88;20305;-83
2022/11/13 07:33:50;;;;;;;;;;;;;;;3.07;100.00;102015.87;1457072;90;20379;-83
2022/11/13 07:36:16;;;;;;;;;;;;;;;3.16;100.00;102012.91;1445511;88;20398;-83
2022/11/13 07:38:42;;;;;;;;;;;;;;;3.30;100.00;102011.03;1459255;88;20276;-84
2022/11/13 07:41:08;;;;;;;;;;;;;;;3.36;100.00;102006.00;1477331;88;20262;-84
2022/11/13 07:43:34;;;;;;;;;;;;;;;3.45;100.00;102014.78;1456940;88;20376;-82
2022/11/13 07:46:00;;;;;;;;;;;;;;;3.53;100.00;102015.78;1462611;88;20900;-84
2022/11/13 07:48:27;;;;;;;;;;;;;;;3.65;100.00;102011.80;1452841;88;20217;-84
2022/11/13 07:50:53;;;;;;;;;;;;;;;3.74;100.00;102008.79;1461877;88;20350;-83
2022/11/13 07:53:20;;;;;;;;;;;;;;;3.84;100.00;102008.80;1463247;88;20291;-85
2022/11/13 07:55:46;;;;;;;;;;;;;;;3.80;100.00;102013.33;1467418;88;20284;-84
2022/11/13 07:58:12;;;;;;;;;;;;;;;3.81;100.00;102012.41;1465196;88;20371;-85
2022/11/13 08:00:38;;;;;;;;;;;;;;;3.67;100.00;102017.83;1452193;88;20980;-84
2022/11/13 08:03:07;;;;;;;;;;;;;;;3.73;100.00;102014.48;1458489;88;21428;-84
2022/11/13 08:05:33;;;;;;;;;;;;;;;3.67;100.00;102020.45;1465049;88;20283;-86
2022/11/13 08:07:59;;;;;;;;;;;;;;;3.73;100.00;102014.95;1448094;90;20381;-84
2022/11/13 08:10:25;;;;;;;;;;;;;;;3.87;100.00;102009.98;1466902;88;21533;-86
2022/11/13 08:13:04;;;;;;;;;;;;;;;4.00;100.00;102012.48;1473947;88;20232;-86
2022/11/13 08:15:31;;;;;;;;;;;;;;;4.02;100.00;102008.00;1452865;88;20345;-85
2022/11/13 08:17:58;;;;;;;;;;;;;;;4.07;100.00;102013.90;1447363;90;20423;-85
2022/11/13 08:20:25;;;;;;;;;;;;;;;4.23;100.00;102015.41;1462065;88;20283;-85
2022/11/13 08:22:51;;;;;;;;;;;;;;;4.39;100.00;102020.80;1466016;88;20216;-85
2022/11/13 08:25:18;;;;;;;;;;;;;;;4.43;100.00;102024.13;1479503;88;20335;-86
2022/11/13 08:27:44;;;;;;;;;;;;;;;4.45;100.00;102028.84;1467529;88;20350;-86
2022/11/13 08:30:12;;;;;;;;;;;;;;;4.48;100.00;102033.48;1471682;88;20335;-83
2022/11/13 08:32:38;;;;;;;;;;;;;;;4.47;100.00;102028.33;1465837;88;20300;-84
2022/11/13 08:35:04;;;;;;;;;;;;;;;4.53;100.00;102028.05;1449591;88;20796;-85
2022/11/13 08:37:32;;;;;;;;;;;;;;;4.45;100.00;102030.16;1457850;88;20373;-85
2022/11/13 08:39:58;;;;;;;;;;;;;;;4.45;100.00;102036.24;1444407;88;20558;-82
2022/11/13 08:42:24;;;;;;;;;;;;;;;4.57;100.00;102029.59;1435814;90;20322;-83
2022/11/13 08:44:50;;;;;;;;;;;;;;;4.70;100.00;102024.66;1439633;90;20337;-84
2022/11/13 08:47:15;;;;;;;;;;;;;;;4.83;100.00;102025.77;1436690;90;20370;-86
2022/11/13 08:49:41;;;;;;;;;;;;;;;4.81;100.00;102030.26;1427664;91;20302;-86
2022/11/13 08:52:07;;;;;;;;;;;;;;;4.87;100.00;102033.06;1427151;91;20295;-87
2022/11/13 08:54:33;;;;;;;;;;;;;;;4.98;100.00;102027.69;1426759;91;20317;-86
2022/11/13 08:56:58;;;;;;;;;;;;;;;5.15;100.00;102033.89;1452836;90;20387;-85
2022/11/13 08:59:26;;;;;;;;;;;;;;;5.35;100.00;102035.12;1432647;89;20316;-86
2022/11/13 09:01:57;;;;;;;;;;;;;;;5.58;100.00;102035.31;1434468;90;20300;-84
2022/11/13 09:04:20;;;;;;;;;;;;;;;5.74;100.00;102031.91;1452903;90;20331;-87
2022/11/13 09:06:45;;;;;;;;;;;;;;;5.74;100.00;102030.13;1456761;89;20298;-86
2022/11/13 09:09:11;;;;;;;;;;;;;;;5.93;100.00;102029.17;1472483;88;20358;-85
2022/11/13 09:11:37;;;;;;;;;;;;;;;6.16;100.00;102022.33;1438816;89;20329;-85
2022/11/13 09:14:03;;;;;;;;;;;;;;;6.36;98.83;102020.40;1447371;89;20291;-83
2022/11/13 09:16:29;;;;;;;;;;;;;;;6.48;97.63;102022.41;1467934;88;20282;-86
2022/11/13 09:18:54;;;;;;;;;;;;;;;6.67;97.92;102028.34;1453225;89;20907;-85
2022/11/13 09:21:20;;;;;;;;;;;;;;;6.78;95.52;102031.25;1459650;89;20284;-87
2022/11/13 09:23:46;;;;;;;;;;;;;;;7.15;94.84;102025.26;1423761;91;20290;-87
2022/11/13 09:26:12;;;;;;;;;;;;;;;7.30;92.93;102017.42;1461668;89;20789;-88
2022/11/13 09:28:38;;;;;;;;;;;;;;;7.35;92.07;102012.75;1458203;88;20343;-87
2022/11/13 09:31:05;;;;;;;;;;;;;;;7.65;91.32;102012.30;1440252;90;20308;-88
2022/11/13 09:33:31;;;;;;;;;;;;;;;7.85;89.60;102012.45;1431688;90;20413;-87
2022/11/13 09:35:57;;;;;;;;;;;;;;;8.12;88.91;102012.56;1437318;90;20814;-87
2022/11/13 09:38:22;;;;;;;;;;;;;;;8.82;86.83;102003.88;1439000;90;20265;-88
2022/11/13 09:40:55;;;;;;;;;;;;;;;9.45;84.88;102003.27;1457022;89;20329;-88
2022/11/13 09:43:43;;;;;;;;;;;;;;;9.81;80.58;102003.53;1414320;92;20302;-88
2022/11/13 09:46:27;;;;;;;;;;;;;;;10.23;79.75;101990.97;1437917;89;20924;-86
2022/11/13 09:48:57;;;;;;;;;;;;;;;10.46;77.64;101994.67;1454931;89;20314;-88
2022/11/13 09:51:27;;;;;;;;;;;;;;;10.95;77.68;101990.66;1454306;89;20805;-90
2022/11/13 09:53:53;;;;;;;;;;;;;;;11.29;76.83;101989.52;1463881;89;20418;-89
2022/11/13 09:56:29;;;;;;;;;;;;;;;11.56;73.14;101982.61;1466585;88;20298;-87
2022/11/13 09:58:58;;;;;;;;;;;;;;;11.85;72.08;101979.53;1461801;89;20276;-89
2022/11/13 10:01:34;;;;;;;;;;;;;;;11.87;71.55;101985.13;1445146;89;20732;-87
2022/11/13 10:04:03;;;;;;;;;;;;;;;12.40;72.32;101987.23;1456563;89;20321;-87
2022/11/13 10:06:45;;;;;;;;;;;;;;;12.54;69.63;101984.78;1447711;89;20425;-87
2022/11/13 10:09:23;;;;;;;;;;;;;;;12.56;68.96;101975.73;1432904;91;20288;-89
2022/11/13 10:11:55;;;;;;;;;;;;;;;12.54;68.78;101975.00;1436287;90;20367;-84
2022/11/13 10:14:28;;;;;;;;;;;;;;;12.51;69.53;101963.30;1451658;90;20359;-85
2022/11/13 10:16:57;;;;;;;;;;;;;;;12.31;69.31;101961.38;1454744;89;20946;-87
2022/11/13 10:19:26;;;;;;;;;;;;;;;12.38;70.10;101962.11;1431489;90;20323;-86
2022/11/13 10:21:59;;;;;;;;;;;;;;;12.72;71.25;101954.10;1442595;90;20249;-88
2022/11/13 10:24:28;;;;;;;;;;;;;;;12.73;68.92;101950.95;1439655;90;20335;-81
2022/11/13 10:26:57;;;;;;;;;;;;;;;12.13;72.04;101955.23;1443030;90;20887;-81
2022/11/13 10:29:25;;;;;;;;;;;;;;;12.29;71.50;101958.03;1434518;90;20322;-81
2022/11/13 10:31:52;;;;;;;;;;;;;;;12.19;71.19;101942.80;1445721;90;20335;-79
2022/11/13 10:34:18;;;;;;;;;;;;;;;12.12;72.07;101943.43;1439218;90;20285;-80
2022/11/13 10:37:07;;;;;;;;;;;;;;;12.14;71.41;101943.67;1444080;89;20279;-79
2022/11/13 10:39:43;;;;;;;;;;;;;;;12.63;71.15;101937.09;1460742;89;20263;-79
2022/11/13 10:42:21;;;;;;;;;;;;;;;12.67;70.65;101932.38;1459723;89;21083;-81
2022/11/13 10:44:56;;;;;;;;;;;;;;;12.72;69.44;101937.33;1485003;87;20274;-80
2022/11/13 10:47:25;;;;;;;;;;;;;;;12.98;69.39;101936.52;1482629;87;20304;-80
2022/11/13 10:49:52;;;;;;;;;;;;;;;12.93;68.70;101931.57;1455376;90;20955;-80
2022/11/13 10:52:21;;;;;;;;;;;;;;;12.85;68.52;101926.03;1456257;90;20315;-80
2022/11/13 10:54:47;;;;;;;;;;;;;;;13.24;70.53;101919.23;1473691;89;20284;-81
2022/11/13 10:57:29;;;;;;;;;;;;;;;13.41;68.01;101910.37;1458127;89;20798;-81
2022/11/13 10:59:55;;;;;;;;;;;;;;;13.52;68.14;101908.48;1465223;89;20555;-81
2022/11/13 11:02:23;;;;;;;;;;;;;;;13.60;67.22;101912.28;1460832;89;20851;-80
2022/11/13 11:05:09;;;;;;;;;;;;;;;13.54;66.39;101902.52;1459282;89;20367;-81
2022/11/13 11:07:40;;;;;;;;;;;;;;;13.82;67.15;101900.16;1453249;89;20384;-80
2022/11/13 11:10:35;;;;;;;;;;;;;;;13.41;67.05;101906.38;1448636;89;21121;-82
2022/11/13 11:13:13;;;;;;;;;;;;;;;13.40;67.57;101906.84;1455918;89;20337;-83
2022/11/13 11:15:42;;;;;;;;;;;;;;;13.77;67.50;101891.23;1457758;89;20241;-84
2022/11/13 11:18:27;;;;;;;;;;;;;;;13.85;65.58;101886.58;1442084;90;20748;-81
2022/11/13 11:20:56;;;;;;;;;;;;;;;13.69;65.51;101886.22;1462286;91;20420;-82
2022/11/13 11:23:46;;;;;;;;;;;;;;;13.68;65.81;101885.88;1456513;89;20317;-82
2022/11/13 11:26:19;;;;;;;;;;;;;;;14.08;66.86;101885.91;1472920;88;20378;-83
2022/11/13 11:28:57;;;;;;;;;;;;;;;14.30;65.77;101879.53;1481034;88;20292;-80
2022/11/13 11:31:26;;;;;;;;;;;;;;;14.34;63.72;101878.27;1460118;88;20304;-89
2022/11/13 11:34:05;;;;;;;;;;;;;;;14.59;63.60;101871.62;1475899;88;20358;-86
2022/11/13 11:36:52;;;;;;;;;;;;;;;14.51;62.57;101867.93;1470936;88;20393;-86
2022/11/13 11:39:22;;;;;;;;;;;;;;;14.75;64.60;101863.05;1451494;88;20880;-84
2022/11/13 11:41:58;;;;;;;;;;;;;;;14.83;61.88;101857.88;1465565;88;20311;-87
2022/11/13 11:44:30;;;;;;;;;;;;;;;14.49;60.65;101857.89;1486399;88;20327;-86
2022/11/13 11:46:56;;;;;;;;;;;;;;;14.66;62.47;101857.23;1457504;89;20291;-86
2022/11/13 11:49:24;;;;;;;;;;;;;;;14.18;61.80;101855.30;1468723;88;20292;-86
2022/11/13 11:51:59;;;;;;;;;;;;;;;14.30;62.90;101846.24;1471863;88;20430;-88
2022/11/13 11:54:43;;;;;;;;;;;;;;;13.92;62.96;101844.30;1486327;88;20812;-86
2022/11/13 11:57:18;;;;;;;;;;;;;;;14.12;63.58;101845.20;1473673;88;20312;-84
2022/11/13 12:00:03;;;;;;;;;;;;;;;14.44;63.35;101839.19;1472482;88;21019;-89
2022/11/13 12:02:36;;;;;;;;;;;;;;;14.64;62.31;101833.87;1483963;88;20847;-87
2022/11/13 12:05:08;;;;;;;;;;;;;;;14.61;61.09;101832.33;1458238;88;20410;-86
2022/11/13 12:07:38;;;;;;;;;;;;;;;14.86;62.18;101830.94;1466781;88;20477;-84
2022/11/13 12:10:13;;;;;;;;;;;;;;;15.00;60.89;101820.33;1477898;88;20357;-88
2022/11/13 12:12:49;;;;;;;;;;;;;;;15.01;61.28;101817.17;1468656;88;20409;-84
2022/11/13 12:15:21;;;;;;;;;;;;;;;15.08;61.51;101811.13;1464024;88;20775;-83
2022/11/13 12:18:11;;;;;;;;;;;;;;;15.13;60.81;101808.02;1456371;89;20424;-86
2022/11/13 12:21:05;;;;;;;;;;;;;;;14.89;60.06;101799.99;1459494;88;20282;-84
2022/11/13 12:23:34;;;;;;;;;;;;;;;14.72;60.87;101802.05;1450066;89;20322;-87
2022/11/13 12:26:29;;;;;;;;;;;;;;;14.80;60.38;101792.86;1450916;89;20894;-87
2022/11/13 12:28:58;;;;;;;;;;;;;;;14.84;61.88;101798.24;1450244;89;20270;-85
2022/11/13 12:31:49;;;;;;;;;;;;;;;14.64;61.76;101793.45;1433406;89;20307;-85
2022/11/13 12:34:37;;;;;;;;;;;;;;;14.78;62.92;101796.64;1438400;88;20865;-86
2022/11/13 12:37:06;;;;;;;;;;;;;;;14.99;63.12;101797.33;1434008;89;20434;-88
2022/11/13 12:39:47;;;;;;;;;;;;;;;15.21;61.16;101787.31;1429975;89;21042;-89
2022/11/13 12:42:28;;;;;;;;;;;;;;;15.38;61.84;101784.38;1435857;91;20456;-85
2022/11/13 12:45:00;;;;;;;;;;;;;;;15.35;60.22;101786.84;1432437;91;20427;-85
2022/11/13 12:47:26;;;;;;;;;;;;;;;15.39;59.75;101785.55;1443526;89;20343;-87